createdAt,value
2019-05-25T00:00:45.643Z,4.00
2019-05-25T00:01:45.549Z,4.20
2019-05-25T00:02:45.470Z,4.10
2019-05-25T00:03:45.361Z,4.20
2019-05-25T00:04:45.280Z,4.20
2019-05-25T00:05:45.171Z,4.90
2019-05-25T00:06:45.074Z,4.00
2019-05-25T00:07:44.981Z,4.40
2019-05-25T00:08:44.886Z,5.50
2019-05-25T00:09:48.213Z,4.50
2019-05-25T00:10:44.698Z,3.90
2019-05-25T00:11:44.602Z,3.90
2019-05-25T00:12:44.615Z,4.80
2019-05-25T00:13:44.430Z,4.30
2019-05-25T00:14:44.329Z,4.30
2019-05-25T00:15:44.221Z,4.10
2019-05-25T00:16:44.125Z,4.30
2019-05-25T00:17:44.030Z,4.40
2019-05-25T00:18:43.937Z,4.10
2019-05-25T00:19:43.956Z,4.20
2019-05-25T00:20:43.780Z,4.40
2019-05-25T00:21:43.650Z,4.20
2019-05-25T00:22:43.558Z,4.00
2019-05-25T00:23:43.461Z,4.00
2019-05-25T00:24:43.376Z,4.40
2019-05-25T00:25:43.272Z,4.10
2019-05-25T00:26:43.274Z,3.50
2019-05-25T00:27:43.089Z,3.50
2019-05-25T00:28:42.983Z,3.40
2019-05-25T00:29:42.903Z,3.70
2019-05-25T00:30:42.794Z,5.00
2019-05-25T00:31:42.701Z,4.20
2019-05-25T00:32:42.609Z,4.40
2019-05-25T00:33:42.615Z,4.00
2019-05-25T00:34:42.430Z,4.00
2019-05-25T00:35:42.321Z,3.90
2019-05-25T00:36:42.225Z,4.30
2019-05-25T00:37:42.132Z,3.60
2019-05-25T00:38:42.037Z,3.60
2019-05-25T00:39:41.955Z,4.00
2019-05-25T00:40:41.950Z,3.90
2019-05-25T00:41:41.751Z,3.70
2019-05-25T00:42:41.657Z,3.40
2019-05-25T00:43:41.562Z,3.40
2019-05-25T00:44:41.481Z,3.50
2019-05-25T00:45:41.372Z,3.10
2019-05-25T00:46:41.278Z,3.10
2019-05-25T00:47:41.353Z,3.30
2019-05-25T00:48:41.087Z,4.00
2019-05-25T00:49:41.006Z,3.70
2019-05-25T00:50:40.945Z,4.30
2019-05-25T00:51:40.805Z,4.30
2019-05-25T00:52:40.710Z,3.50
2019-05-25T00:53:40.623Z,4.60
2019-05-25T00:54:40.627Z,3.80
2019-05-25T00:55:40.440Z,4.50
2019-05-25T00:56:40.331Z,4.30
2019-05-25T00:57:40.237Z,4.20
2019-05-25T00:58:40.143Z,4.40
2019-05-25T00:59:40.060Z,4.10
2019-05-25T01:00:39.969Z,4.00
2019-05-25T01:01:39.965Z,4.10
2019-05-25T01:02:39.785Z,4.40
2019-05-25T01:03:39.669Z,3.80
2019-05-25T01:04:39.576Z,4.10
2019-05-25T01:05:39.497Z,3.80
2019-05-25T01:06:39.390Z,4.00
2019-05-25T01:07:39.299Z,4.40
2019-05-25T01:08:39.197Z,4.20
2019-05-25T01:09:39.103Z,4.00
2019-05-25T01:10:39.021Z,5.50
2019-05-25T01:11:38.911Z,4.20
2019-05-25T01:12:38.816Z,4.60
2019-05-25T01:13:38.722Z,4.30
2019-05-25T01:14:38.629Z,4.40
2019-05-25T01:15:38.553Z,4.60
2019-05-25T01:16:38.742Z,4.10
2019-05-25T01:17:38.345Z,3.70
2019-05-25T01:18:38.269Z,3.80
2019-05-25T01:19:38.156Z,4.00
2019-05-25T01:20:38.076Z,4.50
2019-05-25T01:21:37.969Z,4.20
2019-05-25T01:22:37.878Z,4.20
2019-05-25T01:23:37.874Z,4.30
2019-05-25T01:24:44.345Z,4.00
2019-05-25T01:25:37.600Z,4.90
2019-05-25T01:26:37.491Z,4.10
2019-05-25T01:27:37.398Z,4.30
2019-05-25T01:28:38.044Z,4.90
2019-05-25T01:29:37.207Z,3.90
2019-05-25T01:30:37.229Z,4.20
2019-05-25T01:31:37.017Z,4.40
2019-05-25T01:32:36.923Z,4.60
2019-05-25T01:33:36.830Z,4.50
2019-05-25T01:34:36.733Z,3.90
2019-05-25T01:35:36.652Z,3.60
2019-05-25T01:36:36.642Z,3.60
2019-05-25T01:37:36.448Z,3.70
2019-05-25T01:38:36.353Z,3.60
2019-05-25T01:39:36.258Z,4.00
2019-05-25T01:40:36.176Z,4.30
2019-05-25T01:41:36.066Z,4.20
2019-05-25T01:42:35.972Z,4.10
2019-05-25T01:43:35.875Z,5.50
2019-05-25T01:44:35.781Z,4.30
2019-05-25T01:45:35.704Z,4.80
2019-05-25T01:46:35.592Z,4.60
2019-05-25T01:47:35.497Z,4.70
2019-05-25T01:48:35.400Z,4.50
2019-05-25T01:49:35.304Z,4.50
2019-05-25T01:50:35.224Z,6.10
2019-05-25T01:51:35.114Z,4.50
2019-05-25T01:52:35.022Z,4.30
2019-05-25T01:53:34.928Z,4.20
2019-05-25T01:54:34.831Z,4.30
2019-05-25T01:55:34.749Z,4.50
2019-05-25T01:56:34.638Z,4.30
2019-05-25T01:57:34.545Z,5.40
2019-05-25T01:58:34.447Z,4.10
2019-05-25T01:59:34.355Z,4.20
2019-05-25T02:00:34.262Z,4.10
2019-05-25T02:01:34.177Z,5.60
2019-05-25T02:02:34.072Z,4.10
2019-05-25T02:03:33.974Z,4.40
2019-05-25T02:04:33.878Z,4.10
2019-05-25T02:05:33.786Z,4.80
2019-05-25T02:06:33.702Z,4.50
2019-05-25T02:07:33.593Z,4.50
2019-05-25T02:08:33.496Z,4.50
2019-05-25T02:09:33.404Z,5.30
2019-05-25T02:10:33.307Z,4.60
2019-05-25T02:11:33.229Z,4.00
2019-05-25T02:12:33.114Z,4.50
2019-05-25T02:13:33.020Z,4.20
2019-05-25T02:14:32.924Z,3.90
2019-05-25T02:15:32.830Z,4.00
2019-05-25T02:16:32.751Z,5.60
2019-05-25T02:17:32.637Z,4.30
2019-05-25T02:18:32.541Z,4.10
2019-05-25T02:19:32.447Z,4.10
2019-05-25T02:20:32.352Z,4.20
2019-05-25T02:21:32.270Z,4.00
2019-05-25T02:22:32.161Z,4.20
2019-05-25T02:23:32.065Z,5.10
2019-05-25T02:24:31.982Z,4.40
2019-05-25T02:25:31.873Z,4.60
2019-05-25T02:26:31.794Z,4.30
2019-05-25T02:27:31.682Z,4.60
2019-05-25T02:28:31.649Z,4.10
2019-05-25T02:29:31.495Z,4.40
2019-05-25T02:30:31.398Z,4.50
2019-05-25T02:31:31.316Z,4.40
2019-05-25T02:32:31.205Z,4.50
2019-05-25T02:33:31.109Z,4.00
2019-05-25T02:34:31.016Z,4.10
2019-05-25T02:35:30.919Z,3.40
2019-05-25T02:36:30.838Z,4.60
2019-05-25T02:37:30.729Z,3.70
2019-05-25T02:38:30.635Z,4.10
2019-05-25T02:39:30.538Z,4.00
2019-05-25T02:40:30.448Z,4.00
2019-05-25T02:41:30.359Z,4.10
2019-05-25T02:42:30.253Z,3.50
2019-05-25T02:43:30.156Z,4.90
2019-05-25T02:44:30.060Z,4.20
2019-05-25T02:45:29.971Z,4.30
2019-05-25T02:46:29.887Z,3.50
2019-05-25T02:47:29.773Z,3.80
2019-05-25T02:48:29.678Z,3.80
2019-05-25T02:49:29.582Z,3.60
2019-05-25T02:50:29.488Z,3.60
2019-05-25T02:51:29.405Z,3.90
2019-05-25T02:52:29.295Z,3.70
2019-05-25T02:53:29.199Z,3.50
2019-05-25T02:54:29.106Z,3.70
2019-05-25T02:55:34.270Z,3.90
2019-05-25T02:56:28.928Z,4.60
2019-05-25T02:57:28.825Z,4.00
2019-05-25T02:58:28.723Z,3.70
2019-05-25T02:59:28.628Z,4.20
2019-05-25T03:00:28.541Z,4.10
2019-05-25T03:01:28.452Z,3.80
2019-05-25T03:02:28.342Z,3.70
2019-05-25T03:03:28.247Z,4.00
2019-05-25T03:04:28.150Z,3.80
2019-05-25T03:05:28.057Z,4.50
2019-05-25T03:06:27.972Z,4.10
2019-05-25T03:07:27.975Z,4.20
2019-05-25T03:08:27.773Z,4.10
2019-05-25T03:09:27.672Z,4.30
2019-05-25T03:10:27.576Z,4.20
2019-05-25T03:11:27.484Z,4.00
2019-05-25T03:12:27.398Z,4.60
2019-05-25T03:13:27.290Z,4.30
2019-05-25T03:14:27.299Z,4.70
2019-05-25T03:15:27.104Z,4.20
2019-05-25T03:16:27.008Z,4.90
2019-05-25T03:17:26.959Z,4.50
2019-05-25T03:18:26.815Z,4.20
2019-05-25T03:19:26.717Z,4.00
2019-05-25T03:20:26.619Z,5.40
2019-05-25T03:21:26.527Z,4.40
2019-05-25T03:22:26.443Z,4.30
2019-05-25T03:23:26.332Z,4.30
2019-05-25T03:24:26.246Z,4.60
2019-05-25T03:25:26.143Z,4.40
2019-05-25T03:26:26.071Z,4.10
2019-05-25T03:27:25.967Z,4.10
2019-05-25T03:28:25.958Z,3.90
2019-05-25T03:29:25.759Z,4.10
2019-05-25T03:30:25.667Z,4.30
2019-05-25T03:31:25.570Z,4.70
2019-05-25T03:32:25.489Z,4.40
2019-05-25T03:33:25.378Z,4.00
2019-05-25T03:34:25.283Z,3.90
2019-05-25T03:35:25.285Z,4.30
2019-05-25T03:36:25.089Z,4.70
2019-05-25T03:37:25.055Z,4.70
2019-05-25T03:38:24.899Z,4.40
2019-05-25T03:39:24.803Z,4.70
2019-05-25T03:40:24.711Z,4.50
2019-05-25T03:41:24.610Z,4.70
2019-05-25T03:42:24.635Z,4.30
2019-05-25T03:43:24.423Z,4.50
2019-05-25T03:44:24.325Z,5.00
2019-05-25T03:45:24.235Z,4.50
2019-05-25T03:46:24.150Z,4.50
2019-05-25T03:47:24.052Z,4.60
2019-05-25T03:48:23.944Z,4.60
2019-05-25T03:49:23.954Z,4.70
2019-05-25T03:50:23.754Z,4.60
2019-05-25T03:51:23.656Z,4.80
2019-05-25T03:52:23.575Z,4.90
2019-05-25T03:53:23.464Z,5.00
2019-05-25T03:54:23.373Z,5.70
2019-05-25T03:55:23.272Z,5.50
2019-05-25T03:56:23.296Z,6.20
2019-05-25T03:57:23.093Z,5.30
2019-05-25T03:58:22.989Z,5.20
2019-05-25T03:59:22.889Z,5.50
2019-05-25T04:00:22.795Z,5.40
2019-05-25T04:01:22.701Z,5.20
2019-05-25T04:02:22.621Z,5.40
2019-05-25T04:03:22.616Z,5.30
2019-05-25T04:04:22.412Z,4.60
2019-05-25T04:05:22.320Z,5.20
2019-05-25T04:06:22.224Z,4.80
2019-05-25T04:07:22.166Z,5.20
2019-05-25T04:08:22.031Z,6.10
2019-05-25T04:09:21.933Z,5.90
2019-05-25T04:10:21.994Z,7.40
2019-05-25T04:11:21.747Z,5.60
2019-05-25T04:12:21.661Z,5.80
2019-05-25T04:13:21.552Z,5.20
2019-05-25T04:14:21.465Z,5.20
2019-05-25T04:15:21.368Z,5.30
2019-05-25T04:16:21.265Z,5.30
2019-05-25T04:17:21.291Z,5.20
2019-05-25T04:18:21.076Z,5.50
2019-05-25T04:19:20.987Z,5.10
2019-05-25T04:20:20.889Z,5.00
2019-05-25T04:21:20.792Z,5.60
2019-05-25T04:22:20.704Z,5.40
2019-05-25T04:23:20.716Z,5.40
2019-05-25T04:24:20.508Z,5.50
2019-05-25T04:25:20.407Z,5.20
2019-05-25T04:26:22.810Z,5.20
2019-05-25T04:27:20.219Z,5.80
2019-05-25T04:28:20.138Z,5.90
2019-05-25T04:29:20.028Z,5.00
2019-05-25T04:30:19.935Z,6.20
2019-05-25T04:31:19.842Z,5.80
2019-05-25T04:32:19.742Z,6.00
2019-05-25T04:33:19.659Z,5.50
2019-05-25T04:34:19.587Z,5.80
2019-05-25T04:35:19.461Z,5.80
2019-05-25T04:36:19.361Z,5.40
2019-05-25T04:37:19.279Z,5.60
2019-05-25T04:38:19.185Z,5.40
2019-05-25T04:39:19.075Z,5.40
2019-05-25T04:40:18.979Z,5.70
2019-05-25T04:41:18.883Z,5.50
2019-05-25T04:42:18.791Z,5.20
2019-05-25T04:43:18.709Z,5.40
2019-05-25T04:44:18.600Z,5.50
2019-05-25T04:45:18.504Z,5.20
2019-05-25T04:46:21.468Z,5.60
2019-05-25T04:47:26.515Z,5.80
2019-05-25T04:48:18.235Z,5.30
2019-05-25T04:49:18.126Z,5.30
2019-05-25T04:50:18.034Z,5.30
2019-05-25T04:51:17.949Z,4.70
2019-05-25T04:52:17.840Z,4.70
2019-05-25T04:53:17.761Z,4.40
2019-05-25T04:54:17.703Z,4.40
2019-05-25T04:55:17.565Z,4.90
2019-05-25T04:56:17.462Z,4.70
2019-05-25T04:57:17.413Z,4.50
2019-05-25T04:58:17.289Z,4.30
2019-05-25T04:59:17.181Z,4.50
2019-05-25T05:00:17.087Z,4.30
2019-05-25T05:01:16.991Z,4.70
2019-05-25T05:02:16.899Z,4.60
2019-05-25T05:03:16.818Z,5.00
2019-05-25T05:04:16.709Z,4.60
2019-05-25T05:05:16.617Z,4.80
2019-05-25T05:06:16.520Z,4.50
2019-05-25T05:07:16.427Z,4.60
2019-05-25T05:08:16.348Z,4.40
2019-05-25T05:09:16.237Z,4.90
2019-05-25T05:10:16.153Z,4.30
2019-05-25T05:11:16.054Z,4.40
2019-05-25T05:12:15.957Z,4.50
2019-05-25T05:13:15.880Z,4.90
2019-05-25T05:14:15.796Z,4.70
2019-05-25T05:15:15.681Z,4.80
2019-05-25T05:16:15.582Z,3.80
2019-05-25T05:17:15.505Z,4.60
2019-05-25T05:18:15.410Z,4.40
2019-05-25T05:19:15.304Z,5.70
2019-05-25T05:20:15.210Z,4.30
2019-05-25T05:21:15.116Z,4.70
2019-05-25T05:22:15.027Z,4.20
2019-05-25T05:23:14.945Z,4.40
2019-05-25T05:24:14.836Z,4.80
2019-05-25T05:25:14.744Z,4.50
2019-05-25T05:26:14.676Z,4.70
2019-05-25T05:27:14.558Z,4.40
2019-05-25T05:28:14.477Z,6.10
2019-05-25T05:29:14.370Z,9.20
2019-05-25T05:30:14.278Z,8.30
2019-05-25T05:31:23.173Z,7.90
2019-05-25T05:32:26.565Z,7.10
2019-05-25T05:33:14.003Z,6.70
2019-05-25T05:34:13.923Z,6.70
2019-05-25T05:35:13.816Z,6.10
2019-05-25T05:36:13.724Z,5.90
2019-05-25T05:37:13.630Z,6.50
2019-05-25T05:38:13.543Z,7.90
2019-05-25T05:39:13.460Z,6.60
2019-05-25T05:40:13.351Z,7.20
2019-05-25T05:41:13.261Z,7.10
2019-05-25T05:42:13.171Z,6.00
2019-05-25T05:43:13.083Z,6.30
2019-05-25T05:44:12.997Z,5.80
2019-05-25T05:45:12.892Z,5.60
2019-05-25T05:46:12.803Z,5.80
2019-05-25T05:47:12.710Z,5.00
2019-05-25T05:48:12.618Z,5.30
2019-05-25T05:49:12.540Z,4.90
2019-05-25T05:50:12.437Z,5.10
2019-05-25T05:51:12.342Z,5.20
2019-05-25T05:52:12.248Z,6.60
2019-05-25T05:53:12.164Z,4.90
2019-05-25T05:54:12.183Z,5.30
2019-05-25T05:55:11.976Z,4.90
2019-05-25T05:56:11.886Z,5.20
2019-05-25T05:57:12.968Z,5.90
2019-05-25T05:58:11.701Z,5.00
2019-05-25T05:59:11.623Z,5.30
2019-05-25T06:00:11.516Z,4.80
2019-05-25T06:01:11.526Z,6.00
2019-05-25T06:02:11.336Z,5.40
2019-05-25T06:03:11.246Z,5.30
2019-05-25T06:04:11.169Z,5.40
2019-05-25T06:05:11.062Z,6.00
2019-05-25T06:06:10.971Z,5.60
2019-05-25T06:07:10.892Z,5.70
2019-05-25T06:08:10.911Z,5.50
2019-05-25T06:09:10.714Z,5.90
2019-05-25T06:10:10.609Z,5.90
2019-05-25T06:11:10.520Z,5.50
2019-05-25T06:12:10.424Z,5.70
2019-05-25T06:13:10.337Z,5.20
2019-05-25T06:14:10.257Z,5.30
2019-05-25T06:15:10.253Z,5.60
2019-05-25T06:16:10.063Z,5.40
2019-05-25T06:17:09.976Z,5.40
2019-05-25T06:18:09.879Z,5.40
2019-05-25T06:19:09.803Z,5.50
2019-05-25T06:20:09.703Z,4.70
2019-05-25T06:21:09.609Z,4.50
2019-05-25T06:22:09.627Z,4.60
2019-05-25T06:23:12.308Z,5.20
2019-05-25T06:24:09.389Z,5.10
2019-05-25T06:25:09.259Z,5.20
2019-05-25T06:26:09.157Z,4.90
2019-05-25T06:27:09.068Z,5.30
2019-05-25T06:28:08.989Z,4.90
2019-05-25T06:29:09.023Z,5.10
2019-05-25T06:30:08.794Z,4.80
2019-05-25T06:31:08.708Z,4.50
2019-05-25T06:32:08.614Z,4.30
2019-05-25T06:33:08.526Z,4.60
2019-05-25T06:34:08.447Z,5.20
2019-05-25T06:35:08.344Z,4.40
2019-05-25T06:36:08.354Z,4.50
2019-05-25T06:37:08.163Z,14.40
2019-05-25T06:38:08.077Z,8.70
2019-05-25T06:39:07.985Z,11.80
2019-05-25T06:40:07.906Z,14.70
2019-05-25T06:41:08.731Z,5.10
2019-05-25T06:42:07.712Z,4.60
2019-05-25T06:43:07.623Z,4.70
2019-05-25T06:44:07.535Z,4.60
2019-05-25T06:45:07.462Z,4.80
2019-05-25T06:46:07.354Z,4.90
2019-05-25T06:47:07.267Z,4.80
2019-05-25T06:48:07.182Z,4.90
2019-05-25T06:49:07.090Z,5.20
2019-05-25T06:50:07.013Z,4.60
2019-05-25T06:51:06.909Z,4.60
2019-05-25T06:52:06.820Z,6.00
2019-05-25T06:53:06.732Z,5.10
2019-05-25T06:54:06.651Z,4.80
2019-05-25T06:55:06.572Z,4.50
2019-05-25T06:56:06.469Z,4.70
2019-05-25T06:57:06.381Z,4.00
2019-05-25T06:58:06.293Z,4.40
2019-05-25T06:59:06.211Z,4.60
2019-05-25T07:00:06.136Z,4.70
2019-05-25T07:01:06.038Z,5.20
2019-05-25T07:02:05.949Z,7.50
2019-05-25T07:03:05.859Z,4.80
2019-05-25T07:04:05.777Z,5.80
2019-05-25T07:05:05.700Z,4.10
2019-05-25T07:06:05.599Z,4.00
2019-05-25T07:07:05.514Z,6.00
2019-05-25T07:08:05.428Z,4.50
2019-05-25T07:09:05.341Z,5.20
2019-05-25T07:10:05.274Z,4.60
2019-05-25T07:11:05.171Z,4.80
2019-05-25T07:12:05.082Z,4.60
2019-05-25T07:13:05.000Z,5.60
2019-05-25T07:14:04.915Z,4.80
2019-05-25T07:15:04.842Z,4.20
2019-05-25T07:16:04.741Z,9.20
2019-05-25T07:17:04.655Z,4.90
2019-05-25T07:18:04.570Z,4.60
2019-05-25T07:19:04.484Z,4.90
2019-05-25T07:20:04.410Z,4.90
2019-05-25T07:21:04.311Z,4.60
2019-05-25T07:22:04.230Z,4.40
2019-05-25T07:23:04.143Z,4.80
2019-05-25T07:24:04.053Z,5.40
2019-05-25T07:25:03.979Z,4.80
2019-05-25T07:26:03.883Z,5.10
2019-05-25T07:27:03.796Z,6.50
2019-05-25T07:28:03.711Z,5.20
2019-05-25T07:29:03.624Z,4.60
2019-05-25T07:30:03.552Z,4.70
2019-05-25T07:31:03.450Z,4.70
2019-05-25T07:32:03.470Z,4.50
2019-05-25T07:33:03.278Z,5.90
2019-05-25T07:34:03.192Z,6.10
2019-05-25T07:35:03.120Z,5.50
2019-05-25T07:36:07.351Z,5.70
2019-05-25T07:37:02.933Z,5.40
2019-05-25T07:38:02.851Z,5.30
2019-05-25T07:39:02.761Z,6.10
2019-05-25T07:40:02.688Z,5.60
2019-05-25T07:41:02.596Z,5.80
2019-05-25T07:42:02.503Z,5.90
2019-05-25T07:43:02.413Z,5.90
2019-05-25T07:44:02.329Z,5.50
2019-05-25T07:45:02.260Z,5.50
2019-05-25T07:46:02.173Z,5.40
2019-05-25T07:47:02.069Z,5.40
2019-05-25T07:48:01.981Z,4.70
2019-05-25T07:49:01.916Z,7.00
2019-05-25T07:50:01.818Z,5.50
2019-05-25T07:51:01.740Z,5.70
2019-05-25T07:52:02.895Z,5.10
2019-05-25T07:53:01.552Z,5.20
2019-05-25T07:54:01.462Z,4.80
2019-05-25T07:55:01.407Z,4.70
2019-05-25T07:56:01.309Z,5.00
2019-05-25T07:57:01.208Z,5.00
2019-05-25T07:58:15.652Z,5.00
2019-05-25T07:59:01.037Z,4.80
2019-05-25T08:00:00.944Z,5.00
2019-05-25T08:01:00.878Z,4.90
2019-05-25T08:02:00.777Z,5.20
2019-05-25T08:03:00.693Z,4.40
2019-05-25T08:04:00.604Z,4.60
2019-05-25T08:05:00.525Z,5.20
2019-05-25T08:06:00.451Z,5.60
2019-05-25T08:07:00.352Z,4.50
2019-05-25T08:08:00.363Z,4.30
2019-05-25T08:09:00.183Z,4.30
2019-05-25T08:10:00.105Z,4.30
2019-05-25T08:11:00.028Z,4.20
2019-05-25T08:11:59.929Z,4.50
2019-05-25T08:12:59.844Z,4.80
2019-05-25T08:13:59.759Z,4.30
2019-05-25T08:14:59.673Z,5.10
2019-05-25T08:15:59.603Z,5.60
2019-05-25T08:16:59.505Z,6.90
2019-05-25T08:17:59.423Z,4.80
2019-05-25T08:18:59.337Z,4.90
2019-05-25T08:19:59.254Z,4.70
2019-05-25T08:20:59.185Z,4.60
2019-05-25T08:21:59.086Z,4.50
2019-05-25T08:22:59.006Z,5.80
2019-05-25T08:23:58.923Z,5.30
2019-05-25T08:24:58.840Z,4.50
2019-05-25T08:25:58.770Z,4.60
2019-05-25T08:26:58.669Z,5.80
2019-05-25T08:27:58.584Z,5.30
2019-05-25T08:28:58.503Z,5.50
2019-05-25T08:29:58.425Z,5.20
2019-05-25T08:31:01.316Z,5.50
2019-05-25T08:31:58.260Z,5.30
2019-05-25T08:32:58.169Z,5.30
2019-05-25T08:33:58.083Z,4.90
2019-05-25T08:34:58.014Z,5.20
2019-05-25T08:35:57.931Z,6.20
2019-05-25T08:36:57.833Z,5.20
2019-05-25T08:37:57.757Z,5.40
2019-05-25T08:38:57.683Z,5.30
2019-05-25T08:39:57.585Z,5.30
2019-05-25T08:40:57.499Z,5.30
2019-05-25T08:41:57.429Z,5.60
2019-05-25T08:42:57.330Z,5.10
2019-05-25T08:43:57.247Z,5.20
2019-05-25T08:44:57.165Z,5.30
2019-05-25T08:45:57.079Z,6.80
2019-05-25T08:46:57.011Z,5.70
2019-05-25T08:47:57.511Z,5.70
2019-05-25T08:48:56.825Z,5.90
2019-05-25T08:49:56.743Z,6.10
2019-05-25T08:50:59.597Z,5.60
2019-05-25T08:51:56.615Z,6.90
2019-05-25T08:52:56.489Z,6.20
2019-05-25T08:53:56.408Z,6.10
2019-05-25T08:54:56.755Z,5.60
2019-05-25T08:55:56.238Z,6.00
2019-05-25T08:56:56.204Z,6.30
2019-05-25T08:57:56.067Z,7.10
2019-05-25T08:58:56.018Z,6.60
2019-05-25T08:59:55.897Z,7.20
2019-05-25T09:00:55.815Z,7.10
2019-05-25T09:01:55.745Z,7.20
2019-05-25T09:02:55.644Z,6.80
2019-05-25T09:03:55.559Z,8.10
2019-05-25T09:04:55.477Z,6.80
2019-05-25T09:05:55.393Z,7.60
2019-05-25T09:06:55.321Z,7.40
2019-05-25T09:07:55.246Z,6.80
2019-05-25T09:08:55.141Z,7.20
2019-05-25T09:09:55.053Z,7.80
2019-05-25T09:10:54.968Z,7.80
2019-05-25T09:11:54.895Z,8.00
2019-05-25T09:12:54.796Z,7.60
2019-05-25T09:13:54.726Z,7.60
2019-05-25T09:14:54.733Z,7.70
2019-05-25T09:15:54.541Z,7.50
2019-05-25T09:16:54.469Z,7.40
2019-05-25T09:17:54.368Z,7.80
2019-05-25T09:18:54.285Z,7.80
2019-05-25T09:19:54.199Z,7.90
2019-05-25T09:20:54.112Z,7.80
2019-05-25T09:22:02.448Z,7.90
2019-05-25T09:22:53.943Z,7.80
2019-05-25T09:23:53.864Z,8.10
2019-05-25T09:24:53.803Z,7.90
2019-05-25T09:25:53.683Z,8.50
2019-05-25T09:26:53.610Z,8.00
2019-05-25T09:27:53.625Z,8.00
2019-05-25T09:29:03.988Z,8.00
2019-05-25T09:29:53.336Z,7.90
2019-05-25T09:30:53.252Z,8.70
2019-05-25T09:31:53.183Z,8.50
2019-05-25T09:32:53.085Z,8.20
2019-05-25T09:33:52.993Z,7.50
2019-05-25T09:34:52.906Z,7.90
2019-05-25T09:35:52.817Z,8.30
2019-05-25T09:36:52.746Z,7.80
2019-05-25T09:37:52.646Z,7.50
2019-05-25T09:38:52.570Z,8.20
2019-05-25T09:39:52.474Z,8.10
2019-05-25T09:40:52.387Z,8.10
2019-05-25T09:41:52.463Z,8.00
2019-05-25T09:42:52.243Z,7.50
2019-05-25T09:43:52.136Z,7.80
2019-05-25T09:44:52.040Z,7.40
2019-05-25T09:45:51.954Z,8.60
2019-05-25T09:46:51.886Z,8.40
2019-05-25T09:47:51.797Z,8.40
2019-05-25T09:48:51.806Z,8.30
2019-05-25T09:49:51.611Z,8.00
2019-05-25T09:50:51.524Z,8.20
2019-05-25T09:51:51.440Z,8.00
2019-05-25T09:52:51.368Z,7.90
2019-05-25T09:53:51.275Z,8.60
2019-05-25T09:54:51.803Z,8.40
2019-05-25T09:55:51.227Z,8.00
2019-05-25T09:56:51.013Z,7.80
2019-05-25T09:57:50.967Z,8.30
2019-05-25T09:58:50.837Z,9.20
2019-05-25T09:59:50.752Z,8.70
2019-05-25T10:00:50.666Z,8.70
2019-05-25T10:01:50.582Z,8.40
2019-05-25T10:02:50.643Z,8.60
2019-05-25T10:03:50.407Z,8.60
2019-05-25T10:04:50.323Z,8.20
2019-05-25T10:05:50.242Z,7.70
2019-05-25T10:06:50.153Z,7.70
2019-05-25T10:07:50.078Z,7.40
2019-05-25T10:08:49.978Z,7.90
2019-05-25T10:09:50.000Z,8.70
2019-05-25T10:10:49.809Z,8.80
2019-05-25T10:11:49.722Z,8.00
2019-05-25T10:12:49.650Z,8.50
2019-05-25T10:13:49.551Z,8.40
2019-05-25T10:14:49.511Z,8.60
2019-05-25T10:15:49.381Z,8.20
2019-05-25T10:16:49.423Z,8.60
2019-05-25T10:17:49.224Z,8.80
2019-05-25T10:18:49.127Z,8.70
2019-05-25T10:19:49.041Z,7.90
2019-05-25T10:20:48.954Z,7.70
2019-05-25T10:21:48.942Z,8.30
2019-05-25T10:22:48.805Z,8.50
2019-05-25T10:23:48.700Z,8.60
2019-05-25T10:24:48.628Z,8.30
2019-05-25T10:25:48.532Z,14.60
2019-05-25T10:26:48.450Z,8.40
2019-05-25T10:27:48.380Z,8.20
2019-05-25T10:28:48.275Z,8.60
2019-05-25T10:29:48.193Z,8.30
2019-05-25T10:30:48.109Z,8.30
2019-05-25T10:31:48.027Z,8.20
2019-05-25T10:32:47.952Z,7.60
2019-05-25T10:33:47.859Z,7.80
2019-05-25T10:34:47.772Z,6.90
2019-05-25T10:35:47.688Z,6.90
2019-05-25T10:36:47.604Z,7.40
2019-05-25T10:37:47.535Z,7.90
2019-05-25T10:38:47.435Z,8.30
2019-05-25T10:39:47.351Z,8.20
2019-05-25T10:40:47.274Z,7.90
2019-05-25T10:41:47.189Z,7.80
2019-05-25T10:42:47.120Z,7.70
2019-05-25T10:43:47.021Z,7.50
2019-05-25T10:44:46.938Z,6.50
2019-05-25T10:45:46.862Z,4.50
2019-05-25T10:46:46.773Z,2.60
2019-05-25T10:47:46.695Z,2.60
2019-05-25T10:48:46.621Z,3.60
2019-05-25T10:49:46.523Z,3.40
2019-05-25T10:50:46.442Z,5.70
2019-05-25T10:51:46.360Z,3.50
2019-05-25T10:52:46.280Z,3.60
2019-05-25T10:53:46.209Z,3.00
2019-05-25T10:54:46.111Z,2.90
2019-05-25T10:55:46.026Z,2.70
2019-05-25T10:56:45.942Z,3.20
2019-05-25T10:57:45.863Z,3.00
2019-05-25T10:58:45.798Z,2.50
2019-05-25T10:59:52.830Z,2.80
2019-05-25T11:00:45.613Z,2.30
2019-05-25T11:01:45.525Z,2.50
2019-05-25T11:02:45.440Z,2.30
2019-05-25T11:03:45.366Z,3.60
2019-05-25T11:04:45.268Z,2.80
2019-05-25T11:05:45.183Z,2.90
2019-05-25T11:06:45.101Z,2.60
2019-05-25T11:07:45.015Z,2.40
2019-05-25T11:08:44.941Z,5.50
2019-05-25T11:09:44.839Z,1.90
2019-05-25T11:10:44.756Z,2.50
2019-05-25T11:11:44.665Z,3.10
2019-05-25T11:12:44.579Z,1.80
2019-05-25T11:13:44.518Z,1.80
2019-05-25T11:14:44.430Z,2.20
2019-05-25T11:15:44.319Z,1.80
2019-05-25T11:16:44.231Z,1.90
2019-05-25T11:17:44.151Z,2.30
2019-05-25T11:18:44.073Z,1.90
2019-05-25T11:19:43.967Z,2.40
2019-05-25T11:20:43.881Z,2.50
2019-05-25T11:21:43.796Z,3.40
2019-05-25T11:22:43.718Z,2.60
2019-05-25T11:23:43.630Z,2.40
2019-05-25T11:24:43.530Z,2.00
2019-05-25T11:25:43.438Z,2.90
2019-05-25T11:26:43.352Z,2.30
2019-05-25T11:27:43.261Z,2.60
2019-05-25T11:28:43.190Z,10.90
2019-05-25T11:29:43.083Z,7.70
2019-05-25T11:30:42.993Z,5.50
2019-05-25T11:31:42.924Z,4.40
2019-05-25T11:32:42.820Z,6.60
2019-05-25T11:33:42.741Z,5.20
2019-05-25T11:34:42.636Z,5.60
2019-05-25T11:35:42.549Z,6.20
2019-05-25T11:36:42.451Z,6.80
2019-05-25T11:37:42.365Z,6.80
2019-05-25T11:38:42.279Z,6.90
2019-05-25T11:39:42.302Z,7.20
2019-05-25T11:40:42.088Z,8.30
2019-05-25T11:41:42.021Z,8.30
2019-05-25T11:42:41.905Z,7.30
2019-05-25T11:43:41.816Z,6.80
2019-05-25T11:44:41.734Z,6.70
2019-05-25T11:45:45.158Z,7.20
2019-05-25T11:46:41.647Z,7.30
2019-05-25T11:47:41.444Z,7.30
2019-05-25T11:48:41.351Z,6.70
2019-05-25T11:49:41.274Z,7.10
2019-05-25T11:50:41.169Z,6.20
2019-05-25T11:51:41.076Z,6.20
2019-05-25T11:52:41.005Z,5.70
2019-05-25T11:53:40.995Z,5.50
2019-05-25T11:54:40.814Z,5.90
2019-05-25T11:55:40.708Z,6.20
2019-05-25T11:56:40.615Z,6.50
2019-05-25T11:57:40.528Z,6.30
2019-05-25T11:58:47.583Z,6.50
2019-05-25T11:59:40.354Z,7.00
2019-05-25T12:00:40.371Z,7.70
2019-05-25T12:01:40.157Z,7.80
2019-05-25T12:02:40.066Z,8.30
2019-05-25T12:03:39.985Z,8.10
2019-05-25T12:04:39.895Z,7.70
2019-05-25T12:05:39.804Z,7.90
2019-05-25T12:06:39.699Z,8.40
2019-05-25T12:07:43.232Z,8.90
2019-05-25T12:08:39.515Z,9.30
2019-05-25T12:09:39.442Z,9.70
2019-05-25T12:10:39.331Z,11.90
2019-05-25T12:11:39.246Z,12.70
2019-05-25T12:12:39.147Z,12.80
2019-05-25T12:13:39.055Z,12.60
2019-05-25T12:14:39.089Z,12.50
2019-05-25T12:15:38.871Z,13.30
2019-05-25T12:16:38.780Z,14.30
2019-05-25T12:17:38.688Z,14.60
2019-05-25T12:18:38.595Z,16.20
2019-05-25T12:19:38.520Z,15.90
2019-05-25T12:20:38.414Z,15.50
2019-05-25T12:21:38.428Z,16.00
2019-05-25T12:22:38.228Z,16.80
2019-05-25T12:23:38.142Z,16.10
2019-05-25T12:24:38.058Z,16.40
2019-05-25T12:25:37.951Z,16.40
2019-05-25T12:26:37.860Z,16.30
2019-05-25T12:27:37.766Z,16.20
2019-05-25T12:28:37.674Z,16.10
2019-05-25T12:29:37.599Z,16.50
2019-05-25T12:30:40.751Z,15.60
2019-05-25T12:31:37.396Z,15.90
2019-05-25T12:32:37.304Z,16.30
2019-05-25T12:33:37.221Z,17.20
2019-05-25T12:34:37.133Z,17.30
2019-05-25T12:35:37.028Z,17.80
2019-05-25T12:36:36.932Z,17.30
2019-05-25T12:37:36.841Z,17.90
2019-05-25T12:38:36.753Z,18.90
2019-05-25T12:39:36.670Z,17.10
2019-05-25T12:40:36.564Z,18.30
2019-05-25T12:41:36.466Z,18.40
2019-05-25T12:42:36.376Z,19.00
2019-05-25T12:43:36.284Z,18.60
2019-05-25T12:44:36.240Z,18.20
2019-05-25T12:45:36.096Z,18.70
2019-05-25T12:46:36.004Z,18.60
2019-05-25T12:47:35.912Z,18.60
2019-05-25T12:48:35.861Z,17.90
2019-05-25T12:49:50.175Z,18.90
2019-05-25T12:50:35.940Z,18.80
2019-05-25T12:51:35.537Z,18.60
2019-05-25T12:52:35.453Z,18.40
2019-05-25T12:53:35.350Z,19.60
2019-05-25T12:54:35.277Z,20.10
2019-05-25T12:55:35.165Z,21.00
2019-05-25T12:56:35.073Z,20.30
2019-05-25T12:57:35.094Z,16.60
2019-05-25T12:58:34.886Z,16.40
2019-05-25T12:59:35.763Z,16.70
2019-05-25T13:00:34.711Z,17.10
2019-05-25T13:01:34.605Z,17.20
2019-05-25T13:02:34.513Z,17.40
2019-05-25T13:03:34.544Z,18.70
2019-05-25T13:04:34.327Z,18.60
2019-05-25T13:05:34.872Z,17.90
2019-05-25T13:06:34.138Z,17.00
2019-05-25T13:07:34.044Z,17.40
2019-05-25T13:08:33.952Z,16.80
2019-05-25T13:09:33.860Z,16.30
2019-05-25T13:10:33.781Z,16.80
2019-05-25T13:11:33.775Z,15.90
2019-05-25T13:12:33.580Z,16.70
2019-05-25T13:13:33.485Z,16.90
2019-05-25T13:14:33.394Z,16.50
2019-05-25T13:15:33.312Z,17.00